sensor_id;sensor_type;location;lat;lon;timestamp;P1;durP1;ratioP1;P2;durP2;ratioP2
28335;SDS011;15592;53.656;7.276;2022-12-29T00:02:13;18.73;;;13.70;;
28335;SDS011;15592;53.656;7.276;2022-12-29T00:04:39;16.55;;;13.35;;
28335;SDS011;15592;53.656;7.276;2022-12-29T00:07:05;15.02;;;13.02;;
28335;SDS011;15592;53.656;7.276;2022-12-29T00:09:31;15.13;;;12.82;;
28335;SDS011;15592;53.656;7.276;2022-12-29T00:11:57;16.52;;;12.77;;
28335;SDS011;15592;53.656;7.276;2022-12-29T00:14:23;16.15;;;13.30;;
28335;SDS011;15592;53.656;7.276;2022-12-29T00:17:07;16.63;;;12.77;;
28335;SDS011;15592;53.656;7.276;2022-12-29T00:19:33;15.10;;;12.85;;
28335;SDS011;15592;53.656;7.276;2022-12-29T00:22:17;21.58;;;13.95;;
28335;SDS011;15592;53.656;7.276;2022-12-29T00:25:01;14.85;;;12.00;;
28335;SDS011;15592;53.656;7.276;2022-12-29T00:27:47;15.13;;;11.95;;
28335;SDS011;15592;53.656;7.276;2022-12-29T00:30:31;15.85;;;11.68;;
28335;SDS011;15592;53.656;7.276;2022-12-29T00:33:19;13.18;;;11.15;;
28335;SDS011;15592;53.656;7.276;2022-12-29T00:36:06;18.75;;;12.00;;
28335;SDS011;15592;53.656;7.276;2022-12-29T00:38:37;13.73;;;10.82;;
28335;SDS011;15592;53.656;7.276;2022-12-29T00:41:23;14.00;;;10.85;;
28335;SDS011;15592;53.656;7.276;2022-12-29T00:44:08;12.90;;;10.38;;
28335;SDS011;15592;53.656;7.276;2022-12-29T00:46:38;10.95;;;9.80;;
28335;SDS011;15592;53.656;7.276;2022-12-29T00:49:06;12.93;;;10.48;;
28335;SDS011;15592;53.656;7.276;2022-12-29T00:51:52;11.40;;;10.00;;
28335;SDS011;15592;53.656;7.276;2022-12-29T00:54:18;13.27;;;9.93;;
28335;SDS011;15592;53.656;7.276;2022-12-29T00:56:50;11.35;;;10.10;;
28335;SDS011;15592;53.656;7.276;2022-12-29T00:59:17;11.07;;;9.50;;
28335;SDS011;15592;53.656;7.276;2022-12-29T01:01:43;12.43;;;9.65;;
28335;SDS011;15592;53.656;7.276;2022-12-29T01:04:10;11.95;;;9.18;;
28335;SDS011;15592;53.656;7.276;2022-12-29T01:06:39;11.73;;;9.48;;
28335;SDS011;15592;53.656;7.276;2022-12-29T01:09:05;12.10;;;9.27;;
28335;SDS011;15592;53.656;7.276;2022-12-29T01:11:50;11.73;;;8.98;;
28335;SDS011;15592;53.656;7.276;2022-12-29T01:14:17;9.35;;;8.35;;
28335;SDS011;15592;53.656;7.276;2022-12-29T01:16:44;11.60;;;8.98;;
28335;SDS011;15592;53.656;7.276;2022-12-29T01:19:10;12.00;;;8.75;;
28335;SDS011;15592;53.656;7.276;2022-12-29T01:21:36;10.10;;;8.82;;
28335;SDS011;15592;53.656;7.276;2022-12-29T01:24:02;11.38;;;9.18;;
28335;SDS011;15592;53.656;7.276;2022-12-29T01:26:28;11.38;;;8.48;;
28335;SDS011;15592;53.656;7.276;2022-12-29T01:28:53;12.05;;;9.45;;
28335;SDS011;15592;53.656;7.276;2022-12-29T01:31:19;13.00;;;8.80;;
28335;SDS011;15592;53.656;7.276;2022-12-29T01:33:44;11.70;;;8.50;;
28335;SDS011;15592;53.656;7.276;2022-12-29T01:36:11;11.13;;;8.68;;
28335;SDS011;15592;53.656;7.276;2022-12-29T01:38:38;10.65;;;8.63;;
28335;SDS011;15592;53.656;7.276;2022-12-29T01:41:05;10.45;;;8.68;;
28335;SDS011;15592;53.656;7.276;2022-12-29T01:43:46;11.60;;;9.30;;
28335;SDS011;15592;53.656;7.276;2022-12-29T01:49:03;10.60;;;8.63;;
28335;SDS011;15592;53.656;7.276;2022-12-29T01:51:48;13.10;;;8.65;;
28335;SDS011;15592;53.656;7.276;2022-12-29T01:57:02;10.98;;;8.52;;
28335;SDS011;15592;53.656;7.276;2022-12-29T01:59:33;10.65;;;7.88;;
28335;SDS011;15592;53.656;7.276;2022-12-29T02:02:03;10.70;;;8.52;;
28335;SDS011;15592;53.656;7.276;2022-12-29T02:04:29;10.05;;;7.63;;
28335;SDS011;15592;53.656;7.276;2022-12-29T02:06:58;9.95;;;8.38;;
28335;SDS011;15592;53.656;7.276;2022-12-29T02:09:28;9.30;;;8.20;;
28335;SDS011;15592;53.656;7.276;2022-12-29T02:11:54;11.57;;;8.13;;
28335;SDS011;15592;53.656;7.276;2022-12-29T02:14:20;10.45;;;8.13;;
28335;SDS011;15592;53.656;7.276;2022-12-29T02:20:17;11.77;;;8.82;;
28335;SDS011;15592;53.656;7.276;2022-12-29T02:23:39;10.82;;;8.05;;
28335;SDS011;15592;53.656;7.276;2022-12-29T02:29:11;9.25;;;8.25;;
28335;SDS011;15592;53.656;7.276;2022-12-29T02:31:41;12.38;;;8.77;;
28335;SDS011;15592;53.656;7.276;2022-12-29T02:37:15;11.43;;;9.13;;
28335;SDS011;15592;53.656;7.276;2022-12-29T02:42:50;12.73;;;9.18;;
28335;SDS011;15592;53.656;7.276;2022-12-29T02:48:19;11.43;;;9.13;;
28335;SDS011;15592;53.656;7.276;2022-12-29T02:51:01;11.98;;;9.20;;
28335;SDS011;15592;53.656;7.276;2022-12-29T02:53:29;12.30;;;9.07;;
28335;SDS011;15592;53.656;7.276;2022-12-29T02:56:16;13.50;;;9.15;;
28335;SDS011;15592;53.656;7.276;2022-12-29T02:58:42;11.85;;;9.52;;
28335;SDS011;15592;53.656;7.276;2022-12-29T03:07:46;15.40;;;10.60;;
28335;SDS011;15592;53.656;7.276;2022-12-29T03:10:18;13.85;;;10.45;;
28335;SDS011;15592;53.656;7.276;2022-12-29T03:18:56;14.20;;;11.20;;
28335;SDS011;15592;53.656;7.276;2022-12-29T03:21:24;13.93;;;10.15;;
28335;SDS011;15592;53.656;7.276;2022-12-29T03:24:18;13.27;;;8.25;;
28335;SDS011;15592;53.656;7.276;2022-12-29T03:26:47;10.98;;;8.35;;
28335;SDS011;15592;53.656;7.276;2022-12-29T03:29:14;7.40;;;5.93;;
28335;SDS011;15592;53.656;7.276;2022-12-29T03:31:43;4.80;;;2.03;;
28335;SDS011;15592;53.656;7.276;2022-12-29T03:34:10;4.55;;;1.73;;
28335;SDS011;15592;53.656;7.276;2022-12-29T03:36:40;2.33;;;1.27;;
28335;SDS011;15592;53.656;7.276;2022-12-29T03:39:12;2.85;;;1.50;;
28335;SDS011;15592;53.656;7.276;2022-12-29T03:41:40;3.92;;;1.45;;
28335;SDS011;15592;53.656;7.276;2022-12-29T03:44:08;5.73;;;1.40;;
28335;SDS011;15592;53.656;7.276;2022-12-29T03:46:34;9.73;;;1.75;;
28335;SDS011;15592;53.656;7.276;2022-12-29T03:49:00;6.95;;;1.67;;
28335;SDS011;15592;53.656;7.276;2022-12-29T03:51:25;9.70;;;2.28;;
28335;SDS011;15592;53.656;7.276;2022-12-29T03:53:51;7.93;;;1.38;;
28335;SDS011;15592;53.656;7.276;2022-12-29T03:56:17;12.05;;;1.67;;
28335;SDS011;15592;53.656;7.276;2022-12-29T03:58:42;9.48;;;2.47;;
28335;SDS011;15592;53.656;7.276;2022-12-29T04:01:08;5.55;;;3.47;;
28335;SDS011;15592;53.656;7.276;2022-12-29T04:03:33;8.50;;;4.93;;
28335;SDS011;15592;53.656;7.276;2022-12-29T04:05:59;10.07;;;5.63;;
28335;SDS011;15592;53.656;7.276;2022-12-29T04:08:24;8.98;;;6.00;;
28335;SDS011;15592;53.656;7.276;2022-12-29T04:10:50;9.38;;;6.47;;
28335;SDS011;15592;53.656;7.276;2022-12-29T04:13:16;11.23;;;7.05;;
28335;SDS011;15592;53.656;7.276;2022-12-29T04:15:44;15.63;;;7.70;;
28335;SDS011;15592;53.656;7.276;2022-12-29T04:18:10;9.25;;;6.57;;
28335;SDS011;15592;53.656;7.276;2022-12-29T04:20:36;8.23;;;5.30;;
28335;SDS011;15592;53.656;7.276;2022-12-29T04:23:20;11.25;;;4.70;;
28335;SDS011;15592;53.656;7.276;2022-12-29T04:25:46;9.70;;;4.25;;
28335;SDS011;15592;53.656;7.276;2022-12-29T04:28:15;8.73;;;3.83;;
28335;SDS011;15592;53.656;7.276;2022-12-29T04:30:42;9.77;;;3.00;;
28335;SDS011;15592;53.656;7.276;2022-12-29T04:33:08;10.52;;;2.95;;
28335;SDS011;15592;53.656;7.276;2022-12-29T04:35:34;15.50;;;3.75;;
28335;SDS011;15592;53.656;7.276;2022-12-29T04:37:59;8.43;;;2.70;;
28335;SDS011;15592;53.656;7.276;2022-12-29T04:40:25;11.10;;;3.22;;
28335;SDS011;15592;53.656;7.276;2022-12-29T04:42:51;10.13;;;2.67;;
28335;SDS011;15592;53.656;7.276;2022-12-29T04:45:16;12.30;;;3.10;;
28335;SDS011;15592;53.656;7.276;2022-12-29T04:47:42;9.18;;;2.72;;
28335;SDS011;15592;53.656;7.276;2022-12-29T04:50:08;9.82;;;3.15;;
28335;SDS011;15592;53.656;7.276;2022-12-29T04:52:34;11.95;;;3.25;;
28335;SDS011;15592;53.656;7.276;2022-12-29T04:55:00;13.85;;;3.28;;
28335;SDS011;15592;53.656;7.276;2022-12-29T04:57:26;9.32;;;3.03;;
28335;SDS011;15592;53.656;7.276;2022-12-29T04:59:52;9.13;;;3.10;;
28335;SDS011;15592;53.656;7.276;2022-12-29T05:02:17;10.20;;;3.35;;
28335;SDS011;15592;53.656;7.276;2022-12-29T05:04:43;4.13;;;3.00;;
28335;SDS011;15592;53.656;7.276;2022-12-29T05:07:09;9.48;;;3.75;;
28335;SDS011;15592;53.656;7.276;2022-12-29T05:09:34;6.40;;;3.40;;
28335;SDS011;15592;53.656;7.276;2022-12-29T05:12:00;7.88;;;3.83;;
28335;SDS011;15592;53.656;7.276;2022-12-29T05:14:26;7.03;;;3.00;;
28335;SDS011;15592;53.656;7.276;2022-12-29T05:16:51;6.22;;;3.10;;
28335;SDS011;15592;53.656;7.276;2022-12-29T05:19:17;7.97;;;3.05;;
28335;SDS011;15592;53.656;7.276;2022-12-29T05:21:43;9.63;;;3.30;;
28335;SDS011;15592;53.656;7.276;2022-12-29T05:24:08;8.48;;;2.83;;
28335;SDS011;15592;53.656;7.276;2022-12-29T05:26:34;9.70;;;3.15;;
28335;SDS011;15592;53.656;7.276;2022-12-29T05:29:00;11.55;;;2.90;;
28335;SDS011;15592;53.656;7.276;2022-12-29T05:31:26;8.70;;;2.78;;
28335;SDS011;15592;53.656;7.276;2022-12-29T05:33:51;11.95;;;2.60;;
28335;SDS011;15592;53.656;7.276;2022-12-29T05:36:17;11.05;;;2.95;;
28335;SDS011;15592;53.656;7.276;2022-12-29T05:38:43;12.18;;;2.63;;
28335;SDS011;15592;53.656;7.276;2022-12-29T05:41:09;18.75;;;2.60;;
28335;SDS011;15592;53.656;7.276;2022-12-29T05:43:34;17.40;;;3.80;;
28335;SDS011;15592;53.656;7.276;2022-12-29T05:46:00;11.05;;;2.22;;
28335;SDS011;15592;53.656;7.276;2022-12-29T05:48:27;12.15;;;2.10;;
28335;SDS011;15592;53.656;7.276;2022-12-29T05:50:52;13.45;;;2.13;;
28335;SDS011;15592;53.656;7.276;2022-12-29T05:53:18;17.45;;;2.83;;
28335;SDS011;15592;53.656;7.276;2022-12-29T05:55:44;13.55;;;3.15;;
28335;SDS011;15592;53.656;7.276;2022-12-29T05:58:12;20.70;;;3.10;;
28335;SDS011;15592;53.656;7.276;2022-12-29T06:00:38;15.43;;;3.17;;
28335;SDS011;15592;53.656;7.276;2022-12-29T06:03:04;12.38;;;2.33;;
28335;SDS011;15592;53.656;7.276;2022-12-29T06:05:29;15.13;;;2.95;;
28335;SDS011;15592;53.656;7.276;2022-12-29T06:07:55;15.63;;;3.03;;
28335;SDS011;15592;53.656;7.276;2022-12-29T06:10:20;20.33;;;2.80;;
28335;SDS011;15592;53.656;7.276;2022-12-29T06:12:46;18.13;;;3.88;;
28335;SDS011;15592;53.656;7.276;2022-12-29T06:15:12;16.75;;;2.88;;
28335;SDS011;15592;53.656;7.276;2022-12-29T06:17:38;20.42;;;2.80;;
28335;SDS011;15592;53.656;7.276;2022-12-29T06:20:04;18.60;;;2.70;;
28335;SDS011;15592;53.656;7.276;2022-12-29T06:22:30;14.05;;;2.92;;
28335;SDS011;15592;53.656;7.276;2022-12-29T06:24:55;16.20;;;2.80;;
28335;SDS011;15592;53.656;7.276;2022-12-29T06:27:21;14.95;;;2.63;;
28335;SDS011;15592;53.656;7.276;2022-12-29T06:29:47;16.77;;;2.90;;
28335;SDS011;15592;53.656;7.276;2022-12-29T06:32:12;18.83;;;3.22;;
28335;SDS011;15592;53.656;7.276;2022-12-29T06:34:38;17.55;;;2.97;;
28335;SDS011;15592;53.656;7.276;2022-12-29T06:37:04;10.88;;;2.53;;
28335;SDS011;15592;53.656;7.276;2022-12-29T06:39:29;18.38;;;3.17;;
28335;SDS011;15592;53.656;7.276;2022-12-29T06:41:55;15.57;;;3.15;;
28335;SDS011;15592;53.656;7.276;2022-12-29T06:44:21;18.43;;;3.73;;
28335;SDS011;15592;53.656;7.276;2022-12-29T06:46:47;14.48;;;2.78;;
28335;SDS011;15592;53.656;7.276;2022-12-29T06:49:13;14.10;;;3.30;;
28335;SDS011;15592;53.656;7.276;2022-12-29T06:51:39;17.27;;;3.40;;
28335;SDS011;15592;53.656;7.276;2022-12-29T06:54:05;14.85;;;3.83;;
28335;SDS011;15592;53.656;7.276;2022-12-29T06:56:30;16.80;;;3.75;;
28335;SDS011;15592;53.656;7.276;2022-12-29T06:58:56;14.43;;;3.22;;
28335;SDS011;15592;53.656;7.276;2022-12-29T07:01:22;18.30;;;3.22;;
28335;SDS011;15592;53.656;7.276;2022-12-29T07:03:47;14.98;;;2.78;;
28335;SDS011;15592;53.656;7.276;2022-12-29T07:06:13;18.52;;;3.05;;
28335;SDS011;15592;53.656;7.276;2022-12-29T07:08:39;22.17;;;3.42;;
28335;SDS011;15592;53.656;7.276;2022-12-29T07:11:04;19.23;;;2.95;;
28335;SDS011;15592;53.656;7.276;2022-12-29T07:13:30;22.98;;;3.55;;
28335;SDS011;15592;53.656;7.276;2022-12-29T07:15:56;17.10;;;2.92;;
28335;SDS011;15592;53.656;7.276;2022-12-29T07:18:21;19.27;;;3.50;;
28335;SDS011;15592;53.656;7.276;2022-12-29T07:20:47;20.98;;;3.47;;
28335;SDS011;15592;53.656;7.276;2022-12-29T07:23:12;22.77;;;3.58;;
28335;SDS011;15592;53.656;7.276;2022-12-29T07:25:38;19.63;;;2.95;;
28335;SDS011;15592;53.656;7.276;2022-12-29T07:28:06;25.17;;;3.20;;
28335;SDS011;15592;53.656;7.276;2022-12-29T07:30:32;15.30;;;3.42;;
28335;SDS011;15592;53.656;7.276;2022-12-29T07:32:58;20.17;;;3.10;;
28335;SDS011;15592;53.656;7.276;2022-12-29T07:35:23;21.75;;;3.40;;
28335;SDS011;15592;53.656;7.276;2022-12-29T07:37:49;18.90;;;4.20;;
28335;SDS011;15592;53.656;7.276;2022-12-29T07:40:15;15.65;;;3.20;;
28335;SDS011;15592;53.656;7.276;2022-12-29T07:42:41;31.70;;;4.70;;
28335;SDS011;15592;53.656;7.276;2022-12-29T07:45:06;27.15;;;3.92;;
28335;SDS011;15592;53.656;7.276;2022-12-29T07:47:34;26.52;;;3.33;;
28335;SDS011;15592;53.656;7.276;2022-12-29T07:49:59;19.55;;;3.47;;
28335;SDS011;15592;53.656;7.276;2022-12-29T07:52:25;21.65;;;3.95;;
28335;SDS011;15592;53.656;7.276;2022-12-29T07:54:50;19.00;;;3.35;;
28335;SDS011;15592;53.656;7.276;2022-12-29T07:57:16;17.55;;;3.25;;
28335;SDS011;15592;53.656;7.276;2022-12-29T07:59:42;24.55;;;3.25;;
28335;SDS011;15592;53.656;7.276;2022-12-29T08:02:09;19.42;;;3.33;;
28335;SDS011;15592;53.656;7.276;2022-12-29T08:04:36;19.45;;;3.55;;
28335;SDS011;15592;53.656;7.276;2022-12-29T08:07:01;20.30;;;3.58;;
28335;SDS011;15592;53.656;7.276;2022-12-29T08:09:27;23.50;;;4.10;;
28335;SDS011;15592;53.656;7.276;2022-12-29T08:11:53;24.33;;;3.83;;
28335;SDS011;15592;53.656;7.276;2022-12-29T08:14:18;16.70;;;3.65;;
28335;SDS011;15592;53.656;7.276;2022-12-29T08:16:44;13.60;;;3.60;;
28335;SDS011;15592;53.656;7.276;2022-12-29T08:19:10;20.63;;;3.85;;
28335;SDS011;15592;53.656;7.276;2022-12-29T08:21:37;17.92;;;3.33;;
28335;SDS011;15592;53.656;7.276;2022-12-29T08:24:03;28.30;;;4.07;;
28335;SDS011;15592;53.656;7.276;2022-12-29T08:26:28;26.23;;;4.70;;
28335;SDS011;15592;53.656;7.276;2022-12-29T08:28:54;23.08;;;3.58;;
28335;SDS011;15592;53.656;7.276;2022-12-29T08:31:20;20.08;;;3.60;;
28335;SDS011;15592;53.656;7.276;2022-12-29T08:33:46;23.38;;;3.55;;
28335;SDS011;15592;53.656;7.276;2022-12-29T08:36:12;22.13;;;3.20;;
28335;SDS011;15592;53.656;7.276;2022-12-29T08:38:38;21.10;;;3.15;;
28335;SDS011;15592;53.656;7.276;2022-12-29T08:41:03;18.48;;;3.30;;
28335;SDS011;15592;53.656;7.276;2022-12-29T08:43:29;14.43;;;3.10;;
28335;SDS011;15592;53.656;7.276;2022-12-29T08:45:54;25.80;;;4.68;;
28335;SDS011;15592;53.656;7.276;2022-12-29T08:48:20;17.98;;;2.97;;
28335;SDS011;15592;53.656;7.276;2022-12-29T08:50:47;21.65;;;3.30;;
28335;SDS011;15592;53.656;7.276;2022-12-29T08:53:13;15.15;;;3.70;;
28335;SDS011;15592;53.656;7.276;2022-12-29T08:55:39;27.25;;;4.32;;
28335;SDS011;15592;53.656;7.276;2022-12-29T08:58:05;22.13;;;3.92;;
28335;SDS011;15592;53.656;7.276;2022-12-29T09:00:31;16.83;;;3.35;;
28335;SDS011;15592;53.656;7.276;2022-12-29T09:02:56;22.40;;;3.83;;
28335;SDS011;15592;53.656;7.276;2022-12-29T09:05:22;17.23;;;3.42;;
28335;SDS011;15592;53.656;7.276;2022-12-29T09:07:47;16.77;;;3.25;;
28335;SDS011;15592;53.656;7.276;2022-12-29T09:10:13;17.88;;;3.47;;
28335;SDS011;15592;53.656;7.276;2022-12-29T09:12:39;22.70;;;3.63;;
28335;SDS011;15592;53.656;7.276;2022-12-29T09:15:05;20.20;;;3.72;;
28335;SDS011;15592;53.656;7.276;2022-12-29T09:17:31;21.67;;;3.50;;
28335;SDS011;15592;53.656;7.276;2022-12-29T09:20:07;25.88;;;4.72;;
28335;SDS011;15592;53.656;7.276;2022-12-29T09:22:34;23.05;;;4.53;;
28335;SDS011;15592;53.656;7.276;2022-12-29T09:25:00;19.63;;;3.83;;
28335;SDS011;15592;53.656;7.276;2022-12-29T09:27:26;20.27;;;3.85;;
28335;SDS011;15592;53.656;7.276;2022-12-29T09:29:52;24.27;;;3.90;;
28335;SDS011;15592;53.656;7.276;2022-12-29T09:32:17;22.45;;;3.67;;
28335;SDS011;15592;53.656;7.276;2022-12-29T09:34:43;23.95;;;3.92;;
28335;SDS011;15592;53.656;7.276;2022-12-29T09:37:08;22.25;;;3.40;;
28335;SDS011;15592;53.656;7.276;2022-12-29T09:39:34;20.95;;;4.32;;
28335;SDS011;15592;53.656;7.276;2022-12-29T09:42:06;22.67;;;4.20;;
28335;SDS011;15592;53.656;7.276;2022-12-29T09:47:03;22.92;;;4.68;;
28335;SDS011;15592;53.656;7.276;2022-12-29T09:52:54;22.55;;;4.25;;
28335;SDS011;15592;53.656;7.276;2022-12-29T09:55:33;32.10;;;4.22;;
28335;SDS011;15592;53.656;7.276;2022-12-29T09:58:04;30.30;;;5.07;;
28335;SDS011;15592;53.656;7.276;2022-12-29T10:00:48;18.67;;;3.67;;
28335;SDS011;15592;53.656;7.276;2022-12-29T10:03:18;23.52;;;4.68;;
28335;SDS011;15592;53.656;7.276;2022-12-29T10:06:09;30.67;;;4.80;;
28335;SDS011;15592;53.656;7.276;2022-12-29T10:14:17;34.95;;;5.07;;
28335;SDS011;15592;53.656;7.276;2022-12-29T10:17:04;35.28;;;5.55;;
28335;SDS011;15592;53.656;7.276;2022-12-29T10:24:42;34.22;;;4.72;;
28335;SDS011;15592;53.656;7.276;2022-12-29T10:27:10;22.98;;;4.05;;
28335;SDS011;15592;53.656;7.276;2022-12-29T10:29:39;31.45;;;4.40;;
28335;SDS011;15592;53.656;7.276;2022-12-29T10:32:25;30.08;;;5.80;;
28335;SDS011;15592;53.656;7.276;2022-12-29T10:34:59;22.92;;;4.10;;
28335;SDS011;15592;53.656;7.276;2022-12-29T10:37:38;25.13;;;4.53;;
28335;SDS011;15592;53.656;7.276;2022-12-29T10:40:15;20.92;;;3.67;;
28335;SDS011;15592;53.656;7.276;2022-12-29T10:42:49;21.48;;;4.13;;
28335;SDS011;15592;53.656;7.276;2022-12-29T10:45:18;23.42;;;3.53;;
28335;SDS011;15592;53.656;7.276;2022-12-29T10:47:50;24.70;;;4.20;;
28335;SDS011;15592;53.656;7.276;2022-12-29T10:50:28;25.90;;;4.57;;
28335;SDS011;15592;53.656;7.276;2022-12-29T10:52:54;17.95;;;4.57;;
28335;SDS011;15592;53.656;7.276;2022-12-29T10:55:33;21.95;;;3.80;;
28335;SDS011;15592;53.656;7.276;2022-12-29T10:58:02;19.77;;;3.08;;
28335;SDS011;15592;53.656;7.276;2022-12-29T11:00:30;22.95;;;4.10;;
28335;SDS011;15592;53.656;7.276;2022-12-29T11:08:20;21.23;;;3.70;;
28335;SDS011;15592;53.656;7.276;2022-12-29T11:10:58;18.48;;;3.67;;
28335;SDS011;15592;53.656;7.276;2022-12-29T11:13:32;17.90;;;3.35;;
28335;SDS011;15592;53.656;7.276;2022-12-29T11:16:01;15.95;;;2.90;;
28335;SDS011;15592;53.656;7.276;2022-12-29T11:21:03;17.15;;;3.20;;
28335;SDS011;15592;53.656;7.276;2022-12-29T11:23:38;18.73;;;3.23;;
28335;SDS011;15592;53.656;7.276;2022-12-29T11:26:07;20.73;;;3.80;;
28335;SDS011;15592;53.656;7.276;2022-12-29T11:28:40;19.20;;;3.63;;
28335;SDS011;15592;53.656;7.276;2022-12-29T11:31:07;12.85;;;3.40;;
28335;SDS011;15592;53.656;7.276;2022-12-29T11:33:35;27.75;;;4.55;;
28335;SDS011;15592;53.656;7.276;2022-12-29T11:36:10;27.90;;;4.95;;
28335;SDS011;15592;53.656;7.276;2022-12-29T11:41:12;30.77;;;5.40;;
28335;SDS011;15592;53.656;7.276;2022-12-29T11:43:44;19.85;;;4.07;;
28335;SDS011;15592;53.656;7.276;2022-12-29T11:46:17;27.38;;;4.40;;
28335;SDS011;15592;53.656;7.276;2022-12-29T11:49:10;26.60;;;4.20;;
28335;SDS011;15592;53.656;7.276;2022-12-29T11:51:45;28.13;;;4.75;;
28335;SDS011;15592;53.656;7.276;2022-12-29T11:54:16;31.42;;;4.40;;
28335;SDS011;15592;53.656;7.276;2022-12-29T11:56:46;25.45;;;4.32;;
28335;SDS011;15592;53.656;7.276;2022-12-29T12:02:03;22.90;;;4.95;;
28335;SDS011;15592;53.656;7.276;2022-12-29T12:04:40;26.88;;;4.82;;
28335;SDS011;15592;53.656;7.276;2022-12-29T12:07:13;23.48;;;4.78;;
28335;SDS011;15592;53.656;7.276;2022-12-29T12:09:50;20.42;;;3.83;;
28335;SDS011;15592;53.656;7.276;2022-12-29T12:12:28;21.90;;;5.03;;
28335;SDS011;15592;53.656;7.276;2022-12-29T12:15:04;31.80;;;4.60;;
28335;SDS011;15592;53.656;7.276;2022-12-29T12:17:40;22.55;;;4.30;;
28335;SDS011;15592;53.656;7.276;2022-12-29T12:23:19;30.65;;;4.97;;
28335;SDS011;15592;53.656;7.276;2022-12-29T12:31:12;21.17;;;3.85;;
28335;SDS011;15592;53.656;7.276;2022-12-29T12:33:58;23.48;;;3.95;;
28335;SDS011;15592;53.656;7.276;2022-12-29T12:45:34;18.95;;;4.20;;
28335;SDS011;15592;53.656;7.276;2022-12-29T12:50:15;20.80;;;3.58;;
28335;SDS011;15592;53.656;7.276;2022-12-29T12:52:48;17.80;;;3.90;;
28335;SDS011;15592;53.656;7.276;2022-12-29T12:58:40;28.30;;;4.28;;
28335;SDS011;15592;53.656;7.276;2022-12-29T13:25:41;20.55;;;3.85;;
28335;SDS011;15592;53.656;7.276;2022-12-29T13:31:12;15.00;;;2.92;;
28335;SDS011;15592;53.656;7.276;2022-12-29T13:34:02;14.00;;;2.88;;
28335;SDS011;15592;53.656;7.276;2022-12-29T13:36:54;16.42;;;3.22;;
28335;SDS011;15592;53.656;7.276;2022-12-29T13:39:35;14.63;;;2.63;;
28335;SDS011;15592;53.656;7.276;2022-12-29T13:42:05;17.88;;;3.42;;
28335;SDS011;15592;53.656;7.276;2022-12-29T13:44:32;16.17;;;3.05;;
28335;SDS011;15592;53.656;7.276;2022-12-29T13:47:14;15.60;;;2.28;;
28335;SDS011;15592;53.656;7.276;2022-12-29T13:49:50;13.57;;;2.42;;
28335;SDS011;15592;53.656;7.276;2022-12-29T13:52:21;20.70;;;3.25;;
28335;SDS011;15592;53.656;7.276;2022-12-29T14:00:33;13.55;;;2.53;;
28335;SDS011;15592;53.656;7.276;2022-12-29T14:08:48;16.85;;;2.63;;
28335;SDS011;15592;53.656;7.276;2022-12-29T14:11:17;17.15;;;2.67;;
28335;SDS011;15592;53.656;7.276;2022-12-29T14:13:46;13.73;;;2.92;;
28335;SDS011;15592;53.656;7.276;2022-12-29T14:16:24;14.45;;;2.65;;
28335;SDS011;15592;53.656;7.276;2022-12-29T14:19:05;17.95;;;2.88;;
28335;SDS011;15592;53.656;7.276;2022-12-29T14:21:39;11.88;;;2.17;;
28335;SDS011;15592;53.656;7.276;2022-12-29T14:34:52;13.95;;;2.40;;
28335;SDS011;15592;53.656;7.276;2022-12-29T14:40:06;14.27;;;2.97;;
28335;SDS011;15592;53.656;7.276;2022-12-29T14:42:49;16.08;;;2.67;;
28335;SDS011;15592;53.656;7.276;2022-12-29T14:47:44;17.23;;;3.40;;
28335;SDS011;15592;53.656;7.276;2022-12-29T14:50:16;16.90;;;3.22;;
28335;SDS011;15592;53.656;7.276;2022-12-29T14:52:53;15.27;;;2.55;;
28335;SDS011;15592;53.656;7.276;2022-12-29T14:55:39;17.77;;;2.30;;
28335;SDS011;15592;53.656;7.276;2022-12-29T14:58:27;16.60;;;2.63;;
28335;SDS011;15592;53.656;7.276;2022-12-29T15:00:55;19.42;;;2.78;;
28335;SDS011;15592;53.656;7.276;2022-12-29T15:08:34;15.35;;;2.92;;
28335;SDS011;15592;53.656;7.276;2022-12-29T15:13:40;16.05;;;2.78;;
28335;SDS011;15592;53.656;7.276;2022-12-29T15:19:01;12.38;;;2.58;;
28335;SDS011;15592;53.656;7.276;2022-12-29T15:21:29;16.83;;;2.05;;
28335;SDS011;15592;53.656;7.276;2022-12-29T15:23:57;14.05;;;3.28;;
28335;SDS011;15592;53.656;7.276;2022-12-29T15:26:22;16.33;;;2.65;;
28335;SDS011;15592;53.656;7.276;2022-12-29T15:29:00;14.30;;;2.83;;
28335;SDS011;15592;53.656;7.276;2022-12-29T15:31:26;17.85;;;2.58;;
28335;SDS011;15592;53.656;7.276;2022-12-29T15:33:54;15.13;;;2.58;;
28335;SDS011;15592;53.656;7.276;2022-12-29T15:36:27;16.75;;;2.53;;
28335;SDS011;15592;53.656;7.276;2022-12-29T15:38:54;15.23;;;2.78;;
28335;SDS011;15592;53.656;7.276;2022-12-29T15:41:31;14.35;;;2.58;;
28335;SDS011;15592;53.656;7.276;2022-12-29T15:44:21;13.40;;;2.35;;
28335;SDS011;15592;53.656;7.276;2022-12-29T15:46:50;12.23;;;2.20;;
28335;SDS011;15592;53.656;7.276;2022-12-29T15:49:16;20.40;;;3.08;;
28335;SDS011;15592;53.656;7.276;2022-12-29T15:51:43;14.25;;;2.55;;
28335;SDS011;15592;53.656;7.276;2022-12-29T15:54:16;22.98;;;4.03;;
28335;SDS011;15592;53.656;7.276;2022-12-29T15:56:43;16.52;;;2.85;;
28335;SDS011;15592;53.656;7.276;2022-12-29T16:01:58;11.43;;;2.30;;
28335;SDS011;15592;53.656;7.276;2022-12-29T16:04:26;22.83;;;2.90;;
28335;SDS011;15592;53.656;7.276;2022-12-29T16:09:36;18.88;;;3.50;;
28335;SDS011;15592;53.656;7.276;2022-12-29T16:12:16;19.55;;;2.85;;
28335;SDS011;15592;53.656;7.276;2022-12-29T16:14:46;14.52;;;2.70;;
28335;SDS011;15592;53.656;7.276;2022-12-29T16:17:16;15.23;;;2.95;;
28335;SDS011;15592;53.656;7.276;2022-12-29T16:20:02;16.35;;;3.13;;
28335;SDS011;15592;53.656;7.276;2022-12-29T16:22:40;16.00;;;3.33;;
28335;SDS011;15592;53.656;7.276;2022-12-29T16:25:14;23.90;;;3.42;;
28335;SDS011;15592;53.656;7.276;2022-12-29T16:27:45;18.55;;;3.78;;
28335;SDS011;15592;53.656;7.276;2022-12-29T16:30:22;22.38;;;3.85;;
28335;SDS011;15592;53.656;7.276;2022-12-29T16:32:50;15.57;;;3.63;;
28335;SDS011;15592;53.656;7.276;2022-12-29T16:35:19;17.27;;;3.08;;
28335;SDS011;15592;53.656;7.276;2022-12-29T16:37:47;20.73;;;3.55;;
28335;SDS011;15592;53.656;7.276;2022-12-29T16:40:31;20.58;;;3.55;;
28335;SDS011;15592;53.656;7.276;2022-12-29T16:42:57;16.00;;;3.33;;
28335;SDS011;15592;53.656;7.276;2022-12-29T16:48:10;12.73;;;2.92;;
28335;SDS011;15592;53.656;7.276;2022-12-29T16:50:41;26.50;;;3.97;;
28335;SDS011;15592;53.656;7.276;2022-12-29T16:55:55;21.20;;;4.00;;
28335;SDS011;15592;53.656;7.276;2022-12-29T16:58:22;23.25;;;3.88;;
28335;SDS011;15592;53.656;7.276;2022-12-29T17:03:22;20.52;;;3.55;;
28335;SDS011;15592;53.656;7.276;2022-12-29T17:05:49;17.40;;;3.20;;
28335;SDS011;15592;53.656;7.276;2022-12-29T17:08:19;14.68;;;3.40;;
28335;SDS011;15592;53.656;7.276;2022-12-29T17:10:51;22.38;;;3.22;;
28335;SDS011;15592;53.656;7.276;2022-12-29T17:13:38;25.20;;;3.13;;
28335;SDS011;15592;53.656;7.276;2022-12-29T17:16:04;21.95;;;3.83;;
28335;SDS011;15592;53.656;7.276;2022-12-29T17:18:34;19.17;;;3.15;;
28335;SDS011;15592;53.656;7.276;2022-12-29T17:21:00;18.20;;;3.33;;
28335;SDS011;15592;53.656;7.276;2022-12-29T17:23:26;17.50;;;3.03;;
28335;SDS011;15592;53.656;7.276;2022-12-29T17:25:53;16.95;;;3.70;;
28335;SDS011;15592;53.656;7.276;2022-12-29T17:28:22;22.55;;;3.60;;
28335;SDS011;15592;53.656;7.276;2022-12-29T17:30:54;23.38;;;3.42;;
28335;SDS011;15592;53.656;7.276;2022-12-29T17:33:23;23.67;;;4.32;;
28335;SDS011;15592;53.656;7.276;2022-12-29T17:35:48;19.85;;;3.78;;
28335;SDS011;15592;53.656;7.276;2022-12-29T17:38:16;19.17;;;3.78;;